Terminal Aerodrome Forecast
Issued by NWS

Home | Current Version | Previous Version | Text Only | Print | Product List | Glossary On
Versions: 1 2 3 4 5 6 7 8 9 10 11 12 13 14 15 16 17 18 19 20
000
FTUS43 KDLH 131700
TAFBRD
TAF
KBRD 131739Z 1318/1418 35018G24KT P6SM BKN027
     FM132300 35015G22KT P6SM SCT027 BKN150
     FM140500 34015G25KT P6SM BKN150=

USA.gov is the U.S. government's official web portal to all federal, state and local government web resources and services.